sensor_id;sensor_type;location;lat;lon;timestamp;temperature;humidity
3017;DHT22;1518;52.408;13.060;2023-01-23T00:00:37;15.80;68.60
3017;DHT22;1518;52.408;13.060;2023-01-23T00:03:26;15.70;68.80
3017;DHT22;1518;52.408;13.060;2023-01-23T00:06:15;15.60;68.90
3017;DHT22;1518;52.408;13.060;2023-01-23T00:09:03;15.60;69.10
3017;DHT22;1518;52.408;13.060;2023-01-23T00:11:51;15.60;69.10
3017;DHT22;1518;52.408;13.060;2023-01-23T00:14:39;15.60;69.20
3017;DHT22;1518;52.408;13.060;2023-01-23T00:17:29;15.60;69.20
3017;DHT22;1518;52.408;13.060;2023-01-23T00:20:17;15.60;69.20
3017;DHT22;1518;52.408;13.060;2023-01-23T00:23:06;15.60;69.10
3017;DHT22;1518;52.408;13.060;2023-01-23T00:25:54;16.00;76.70
3017;DHT22;1518;52.408;13.060;2023-01-23T00:28:42;15.70;69.10
3017;DHT22;1518;52.408;13.060;2023-01-23T00:31:32;15.70;68.90
3017;DHT22;1518;52.408;13.060;2023-01-23T00:34:22;15.70;68.80
3017;DHT22;1518;52.408;13.060;2023-01-23T00:37:10;15.80;68.90
3017;DHT22;1518;52.408;13.060;2023-01-23T00:39:59;15.80;68.90
3017;DHT22;1518;52.408;13.060;2023-01-23T00:42:47;15.80;68.80
3017;DHT22;1518;52.408;13.060;2023-01-23T00:45:35;15.80;68.80
3017;DHT22;1518;52.408;13.060;2023-01-23T00:48:24;15.90;68.80
3017;DHT22;1518;52.408;13.060;2023-01-23T00:51:13;15.90;68.80
3017;DHT22;1518;52.408;13.060;2023-01-23T00:54:02;15.90;68.70
3017;DHT22;1518;52.408;13.060;2023-01-23T00:56:50;15.80;68.60
3017;DHT22;1518;52.408;13.060;2023-01-23T00:59:38;15.80;68.70
3017;DHT22;1518;52.408;13.060;2023-01-23T01:02:26;15.80;68.60
3017;DHT22;1518;52.408;13.060;2023-01-23T01:05:14;15.90;68.70
3017;DHT22;1518;52.408;13.060;2023-01-23T01:08:05;15.80;68.60
3017;DHT22;1518;52.408;13.060;2023-01-23T01:10:53;15.70;68.80
3017;DHT22;1518;52.408;13.060;2023-01-23T01:13:42;15.60;68.90
3017;DHT22;1518;52.408;13.060;2023-01-23T01:16:30;15.60;69.00
3017;DHT22;1518;52.408;13.060;2023-01-23T01:19:18;15.60;69.20
3017;DHT22;1518;52.408;13.060;2023-01-23T01:22:07;15.60;69.30
3017;DHT22;1518;52.408;13.060;2023-01-23T01:24:56;15.60;69.20
3017;DHT22;1518;52.408;13.060;2023-01-23T01:27:44;15.60;69.20
3017;DHT22;1518;52.408;13.060;2023-01-23T01:30:33;15.70;69.10
3017;DHT22;1518;52.408;13.060;2023-01-23T01:33:22;15.70;69.10
3017;DHT22;1518;52.408;13.060;2023-01-23T01:36:13;15.80;69.10
3017;DHT22;1518;52.408;13.060;2023-01-23T01:39:01;15.80;68.90
3017;DHT22;1518;52.408;13.060;2023-01-23T01:41:51;15.80;68.90
3017;DHT22;1518;52.408;13.060;2023-01-23T01:44:53;15.90;68.80
3017;DHT22;1518;52.408;13.060;2023-01-23T01:47:41;15.80;68.70
3017;DHT22;1518;52.408;13.060;2023-01-23T01:50:29;15.80;68.70
3017;DHT22;1518;52.408;13.060;2023-01-23T01:53:18;15.80;68.60
3017;DHT22;1518;52.408;13.060;2023-01-23T01:56:09;15.80;68.60
3017;DHT22;1518;52.408;13.060;2023-01-23T01:59:00;15.80;68.60
3017;DHT22;1518;52.408;13.060;2023-01-23T02:01:52;15.90;68.70
3017;DHT22;1518;52.408;13.060;2023-01-23T02:04:44;15.80;68.70
3017;DHT22;1518;52.408;13.060;2023-01-23T02:07:37;15.80;69.40
3017;DHT22;1518;52.408;13.060;2023-01-23T02:10:26;15.90;68.80
3017;DHT22;1518;52.408;13.060;2023-01-23T02:13:23;15.90;68.70
3017;DHT22;1518;52.408;13.060;2023-01-23T02:16:17;15.90;68.60
3017;DHT22;1518;52.408;13.060;2023-01-23T02:19:12;15.90;68.70
3017;DHT22;1518;52.408;13.060;2023-01-23T02:22:11;15.80;68.80
3017;DHT22;1518;52.408;13.060;2023-01-23T02:25:07;15.70;68.90
3017;DHT22;1518;52.408;13.060;2023-01-23T02:27:56;15.60;69.00
3017;DHT22;1518;52.408;13.060;2023-01-23T02:30:45;15.60;69.20
3017;DHT22;1518;52.408;13.060;2023-01-23T02:33:48;15.60;69.20
3017;DHT22;1518;52.408;13.060;2023-01-23T02:36:37;15.70;69.20
3017;DHT22;1518;52.408;13.060;2023-01-23T02:39:26;15.70;69.20
3017;DHT22;1518;52.408;13.060;2023-01-23T02:42:15;15.80;69.10
3017;DHT22;1518;52.408;13.060;2023-01-23T02:45:05;15.80;69.10
3017;DHT22;1518;52.408;13.060;2023-01-23T02:47:53;15.80;68.90
3017;DHT22;1518;52.408;13.060;2023-01-23T02:50:41;15.80;68.80
3017;DHT22;1518;52.408;13.060;2023-01-23T02:53:32;15.90;68.80
3017;DHT22;1518;52.408;13.060;2023-01-23T02:56:20;15.90;68.80
3017;DHT22;1518;52.408;13.060;2023-01-23T02:59:08;15.90;68.70
3017;DHT22;1518;52.408;13.060;2023-01-23T03:02:15;15.90;68.70
3017;DHT22;1518;52.408;13.060;2023-01-23T03:05:04;15.90;68.60
3017;DHT22;1518;52.408;13.060;2023-01-23T03:07:52;15.90;68.50
3017;DHT22;1518;52.408;13.060;2023-01-23T03:10:40;15.90;68.60
3017;DHT22;1518;52.408;13.060;2023-01-23T03:13:29;15.90;68.70
3017;DHT22;1518;52.408;13.060;2023-01-23T03:16:18;15.90;68.60
3017;DHT22;1518;52.408;13.060;2023-01-23T03:19:08;15.80;68.60
3017;DHT22;1518;52.408;13.060;2023-01-23T03:21:56;15.80;68.60
3017;DHT22;1518;52.408;13.060;2023-01-23T03:24:45;15.80;68.70
3017;DHT22;1518;52.408;13.060;2023-01-23T03:27:33;15.80;68.70
3017;DHT22;1518;52.408;13.060;2023-01-23T03:30:23;15.80;68.80
3017;DHT22;1518;52.408;13.060;2023-01-23T03:33:11;15.70;68.80
3017;DHT22;1518;52.408;13.060;2023-01-23T03:36:00;15.50;75.90
3017;DHT22;1518;52.408;13.060;2023-01-23T03:38:48;15.60;69.10
3017;DHT22;1518;52.408;13.060;2023-01-23T03:41:54;15.60;69.20
3017;DHT22;1518;52.408;13.060;2023-01-23T03:44:42;15.60;69.40
3017;DHT22;1518;52.408;13.060;2023-01-23T03:47:30;15.70;69.50
3017;DHT22;1518;52.408;13.060;2023-01-23T03:50:18;15.70;69.30
3017;DHT22;1518;52.408;13.060;2023-01-23T03:53:08;15.70;69.20
3017;DHT22;1518;52.408;13.060;2023-01-23T03:55:56;15.60;76.30
3017;DHT22;1518;52.408;13.060;2023-01-23T03:58:44;15.80;69.10
3017;DHT22;1518;52.408;13.060;2023-01-23T04:01:32;15.90;69.10
3017;DHT22;1518;52.408;13.060;2023-01-23T04:04:20;15.90;69.00
3017;DHT22;1518;52.408;13.060;2023-01-23T04:07:08;15.90;68.80
3017;DHT22;1518;52.408;13.060;2023-01-23T04:09:57;15.90;68.70
3017;DHT22;1518;52.408;13.060;2023-01-23T04:12:45;15.90;68.70
3017;DHT22;1518;52.408;13.060;2023-01-23T04:15:33;15.90;68.70
3017;DHT22;1518;52.408;13.060;2023-01-23T04:18:21;15.90;68.60
3017;DHT22;1518;52.408;13.060;2023-01-23T04:21:10;16.00;68.70
3017;DHT22;1518;52.408;13.060;2023-01-23T04:23:58;16.00;68.70
3017;DHT22;1518;52.408;13.060;2023-01-23T04:26:47;15.90;68.60
3017;DHT22;1518;52.408;13.060;2023-01-23T04:29:35;15.80;68.60
3017;DHT22;1518;52.408;13.060;2023-01-23T04:32:23;15.90;68.70
3017;DHT22;1518;52.408;13.060;2023-01-23T04:35:11;15.90;68.70
3017;DHT22;1518;52.408;13.060;2023-01-23T04:38:00;15.80;68.70
3017;DHT22;1518;52.408;13.060;2023-01-23T04:40:49;15.90;68.80
3017;DHT22;1518;52.408;13.060;2023-01-23T04:43:38;15.80;68.80
3017;DHT22;1518;52.408;13.060;2023-01-23T04:46:26;15.80;69.00
3017;DHT22;1518;52.408;13.060;2023-01-23T04:49:14;15.70;68.90
3017;DHT22;1518;52.408;13.060;2023-01-23T04:52:04;15.60;69.10
3017;DHT22;1518;52.408;13.060;2023-01-23T04:54:52;15.60;69.20
3017;DHT22;1518;52.408;13.060;2023-01-23T04:57:40;15.60;69.40
3017;DHT22;1518;52.408;13.060;2023-01-23T05:00:29;15.60;69.40
3017;DHT22;1518;52.408;13.060;2023-01-23T05:03:17;15.60;69.40
3017;DHT22;1518;52.408;13.060;2023-01-23T05:06:05;15.70;69.30
3017;DHT22;1518;52.408;13.060;2023-01-23T05:08:54;15.70;69.30
3017;DHT22;1518;52.408;13.060;2023-01-23T05:11:41;15.70;69.10
3017;DHT22;1518;52.408;13.060;2023-01-23T05:14:29;15.80;69.10
3017;DHT22;1518;52.408;13.060;2023-01-23T05:17:19;15.80;69.00
3017;DHT22;1518;52.408;13.060;2023-01-23T05:20:09;15.80;68.90
3017;DHT22;1518;52.408;13.060;2023-01-23T05:22:57;15.90;68.90
3017;DHT22;1518;52.408;13.060;2023-01-23T05:25:45;16.10;73.60
3017;DHT22;1518;52.408;13.060;2023-01-23T05:28:33;15.90;68.80
3017;DHT22;1518;52.408;13.060;2023-01-23T05:31:21;15.90;68.70
3017;DHT22;1518;52.408;13.060;2023-01-23T05:34:11;15.90;68.70
3017;DHT22;1518;52.408;13.060;2023-01-23T05:36:59;15.90;68.70
3017;DHT22;1518;52.408;13.060;2023-01-23T05:39:47;16.00;68.80
3017;DHT22;1518;52.408;13.060;2023-01-23T05:42:35;16.00;68.80
3017;DHT22;1518;52.408;13.060;2023-01-23T05:45:23;15.90;68.70
3017;DHT22;1518;52.408;13.060;2023-01-23T05:48:11;16.00;68.80
3017;DHT22;1518;52.408;13.060;2023-01-23T05:51:02;15.90;68.70
3017;DHT22;1518;52.408;13.060;2023-01-23T05:53:50;15.90;68.80
3017;DHT22;1518;52.408;13.060;2023-01-23T05:56:38;15.80;68.90
3017;DHT22;1518;52.408;13.060;2023-01-23T05:59:26;15.70;69.00
3017;DHT22;1518;52.408;13.060;2023-01-23T06:02:15;15.70;69.20
3017;DHT22;1518;52.408;13.060;2023-01-23T06:05:03;15.70;69.30
3017;DHT22;1518;52.408;13.060;2023-01-23T06:07:53;15.70;69.30
3017;DHT22;1518;52.408;13.060;2023-01-23T06:10:41;15.70;69.30
3017;DHT22;1518;52.408;13.060;2023-01-23T06:13:29;15.70;69.20
3017;DHT22;1518;52.408;13.060;2023-01-23T06:16:17;15.80;69.30
3017;DHT22;1518;52.408;13.060;2023-01-23T06:19:05;15.80;69.20
3017;DHT22;1518;52.408;13.060;2023-01-23T06:21:53;15.80;69.10
3017;DHT22;1518;52.408;13.060;2023-01-23T06:24:42;15.80;69.00
3017;DHT22;1518;52.408;13.060;2023-01-23T06:27:31;15.90;69.00
3017;DHT22;1518;52.408;13.060;2023-01-23T06:30:19;15.90;68.80
3017;DHT22;1518;52.408;13.060;2023-01-23T06:33:07;16.00;68.90
3017;DHT22;1518;52.408;13.060;2023-01-23T06:35:57;16.00;75.00
3017;DHT22;1518;52.408;13.060;2023-01-23T06:38:45;15.90;68.80
3017;DHT22;1518;52.408;13.060;2023-01-23T06:41:34;15.90;68.70
3017;DHT22;1518;52.408;13.060;2023-01-23T06:44:22;15.90;68.70
3017;DHT22;1518;52.408;13.060;2023-01-23T06:47:10;15.90;68.70
3017;DHT22;1518;52.408;13.060;2023-01-23T06:49:59;16.00;68.80
3017;DHT22;1518;52.408;13.060;2023-01-23T06:52:47;15.90;68.70
3017;DHT22;1518;52.408;13.060;2023-01-23T06:55:35;15.90;68.70
3017;DHT22;1518;52.408;13.060;2023-01-23T06:58:25;16.00;68.80
3017;DHT22;1518;52.408;13.060;2023-01-23T07:01:16;16.00;68.70
3017;DHT22;1518;52.408;13.060;2023-01-23T07:04:05;16.00;68.80
3017;DHT22;1518;52.408;13.060;2023-01-23T07:06:54;16.00;68.90
3017;DHT22;1518;52.408;13.060;2023-01-23T07:09:43;15.80;69.10
3017;DHT22;1518;52.408;13.060;2023-01-23T07:12:31;15.80;69.70
3017;DHT22;1518;52.408;13.060;2023-01-23T07:15:20;15.90;69.90
3017;DHT22;1518;52.408;13.060;2023-01-23T07:18:09;16.10;69.90
3017;DHT22;1518;52.408;13.060;2023-01-23T07:20:57;16.20;69.80
3017;DHT22;1518;52.408;13.060;2023-01-23T07:23:45;16.40;69.80
3017;DHT22;1518;52.408;13.060;2023-01-23T07:26:33;16.50;69.60
3017;DHT22;1518;52.408;13.060;2023-01-23T07:29:21;16.70;69.40
3017;DHT22;1518;52.408;13.060;2023-01-23T07:32:10;16.90;69.20
3017;DHT22;1518;52.408;13.060;2023-01-23T07:34:58;17.00;69.00
3017;DHT22;1518;52.408;13.060;2023-01-23T07:37:46;17.10;68.80
3017;DHT22;1518;52.408;13.060;2023-01-23T07:40:34;17.30;68.80
3017;DHT22;1518;52.408;13.060;2023-01-23T07:43:24;17.40;68.80
3017;DHT22;1518;52.408;13.060;2023-01-23T07:46:13;17.60;68.70
3017;DHT22;1518;52.408;13.060;2023-01-23T07:49:02;17.70;68.30
3017;DHT22;1518;52.408;13.060;2023-01-23T07:51:50;17.90;68.20
3017;DHT22;1518;52.408;13.060;2023-01-23T07:54:38;18.00;67.90
3017;DHT22;1518;52.408;13.060;2023-01-23T07:57:26;18.10;67.60
3017;DHT22;1518;52.408;13.060;2023-01-23T08:00:15;18.10;67.50
3017;DHT22;1518;52.408;13.060;2023-01-23T08:03:03;18.20;67.50
3017;DHT22;1518;52.408;13.060;2023-01-23T08:05:53;18.50;72.10
3017;DHT22;1518;52.408;13.060;2023-01-23T08:08:41;18.50;67.40
3017;DHT22;1518;52.408;13.060;2023-01-23T08:11:29;18.60;67.20
3017;DHT22;1518;52.408;13.060;2023-01-23T08:14:20;18.60;67.00
3017;DHT22;1518;52.408;13.060;2023-01-23T08:17:08;18.70;66.90
3017;DHT22;1518;52.408;13.060;2023-01-23T08:19:56;18.20;66.30
3017;DHT22;1518;52.408;13.060;2023-01-23T08:22:46;18.80;66.70
3017;DHT22;1518;52.408;13.060;2023-01-23T08:25:34;18.80;66.60
3017;DHT22;1518;52.408;13.060;2023-01-23T08:28:24;18.80;66.70
3017;DHT22;1518;52.408;13.060;2023-01-23T08:31:13;18.90;66.70
3017;DHT22;1518;52.408;13.060;2023-01-23T08:34:01;19.00;66.60
3017;DHT22;1518;52.408;13.060;2023-01-23T08:36:49;19.00;66.50
3017;DHT22;1518;52.408;13.060;2023-01-23T08:39:39;19.10;66.50
3017;DHT22;1518;52.408;13.060;2023-01-23T08:42:27;19.10;66.30
3017;DHT22;1518;52.408;13.060;2023-01-23T08:45:15;19.10;66.30
3017;DHT22;1518;52.408;13.060;2023-01-23T08:48:04;19.10;66.30
3017;DHT22;1518;52.408;13.060;2023-01-23T08:50:58;19.10;66.60
3017;DHT22;1518;52.408;13.060;2023-01-23T08:53:47;19.10;66.60
3017;DHT22;1518;52.408;13.060;2023-01-23T08:56:36;19.20;66.50
3017;DHT22;1518;52.408;13.060;2023-01-23T08:59:24;19.30;67.00
3017;DHT22;1518;52.408;13.060;2023-01-23T09:02:12;19.30;67.40
3017;DHT22;1518;52.408;13.060;2023-01-23T09:05:00;19.40;67.70
3017;DHT22;1518;52.408;13.060;2023-01-23T09:07:48;19.40;67.60
3017;DHT22;1518;52.408;13.060;2023-01-23T09:10:36;19.50;67.60
3017;DHT22;1518;52.408;13.060;2023-01-23T09:13:25;19.50;66.70
3017;DHT22;1518;52.408;13.060;2023-01-23T09:16:14;19.60;66.40
3017;DHT22;1518;52.408;13.060;2023-01-23T09:19:02;19.50;66.20
3017;DHT22;1518;52.408;13.060;2023-01-23T09:21:51;19.50;66.10
3017;DHT22;1518;52.408;13.060;2023-01-23T09:24:40;19.50;66.10
3017;DHT22;1518;52.408;13.060;2023-01-23T09:27:28;19.50;66.40
3017;DHT22;1518;52.408;13.060;2023-01-23T09:30:18;19.60;66.60
3017;DHT22;1518;52.408;13.060;2023-01-23T09:33:06;19.60;66.70
3017;DHT22;1518;52.408;13.060;2023-01-23T09:35:54;19.60;70.90
3017;DHT22;1518;52.408;13.060;2023-01-23T09:38:43;19.70;66.60
3017;DHT22;1518;52.408;13.060;2023-01-23T09:41:31;19.80;66.60
3017;DHT22;1518;52.408;13.060;2023-01-23T09:44:24;19.80;66.60
3017;DHT22;1518;52.408;13.060;2023-01-23T09:47:19;19.80;66.40
3017;DHT22;1518;52.408;13.060;2023-01-23T09:50:16;19.90;66.60
3017;DHT22;1518;52.408;13.060;2023-01-23T09:53:10;20.00;66.70
3017;DHT22;1518;52.408;13.060;2023-01-23T09:56:03;20.30;70.60
3017;DHT22;1518;52.408;13.060;2023-01-23T09:59:11;20.10;66.20
3017;DHT22;1518;52.408;13.060;2023-01-23T10:02:00;20.10;66.20
3017;DHT22;1518;52.408;13.060;2023-01-23T10:04:51;20.10;66.20
3017;DHT22;1518;52.408;13.060;2023-01-23T10:07:55;20.10;66.20
3017;DHT22;1518;52.408;13.060;2023-01-23T10:10:59;20.10;65.90
3017;DHT22;1518;52.408;13.060;2023-01-23T10:14:03;20.20;65.90
3017;DHT22;1518;52.408;13.060;2023-01-23T10:17:04;20.20;65.70
3017;DHT22;1518;52.408;13.060;2023-01-23T10:20:19;20.10;65.50
3017;DHT22;1518;52.408;13.060;2023-01-23T10:23:22;20.10;65.60
3017;DHT22;1518;52.408;13.060;2023-01-23T10:26:15;20.10;65.60
3017;DHT22;1518;52.408;13.060;2023-01-23T10:29:12;20.10;65.60
3017;DHT22;1518;52.408;13.060;2023-01-23T10:32:01;20.10;65.50
3017;DHT22;1518;52.408;13.060;2023-01-23T10:34:56;20.10;65.50
3017;DHT22;1518;52.408;13.060;2023-01-23T10:37:50;20.10;65.50
3017;DHT22;1518;52.408;13.060;2023-01-23T10:40:42;20.10;65.40
3017;DHT22;1518;52.408;13.060;2023-01-23T10:43:50;20.10;65.30
3017;DHT22;1518;52.408;13.060;2023-01-23T10:46:44;20.20;65.50
3017;DHT22;1518;52.408;13.060;2023-01-23T10:49:34;20.20;65.20
3017;DHT22;1518;52.408;13.060;2023-01-23T10:52:35;20.30;65.20
3017;DHT22;1518;52.408;13.060;2023-01-23T10:55:28;20.30;65.00
3017;DHT22;1518;52.408;13.060;2023-01-23T10:58:27;20.30;65.00
3017;DHT22;1518;52.408;13.060;2023-01-23T11:01:24;20.30;64.90
3017;DHT22;1518;52.408;13.060;2023-01-23T11:04:18;20.30;64.80
3017;DHT22;1518;52.408;13.060;2023-01-23T11:07:11;20.30;64.90
3017;DHT22;1518;52.408;13.060;2023-01-23T11:10:20;20.20;64.90
3017;DHT22;1518;52.408;13.060;2023-01-23T11:13:24;20.20;65.10
3017;DHT22;1518;52.408;13.060;2023-01-23T11:16:13;20.30;65.00
3017;DHT22;1518;52.408;13.060;2023-01-23T11:19:10;20.30;65.10
3017;DHT22;1518;52.408;13.060;2023-01-23T11:22:00;20.30;65.10
3017;DHT22;1518;52.408;13.060;2023-01-23T11:24:49;20.40;65.20
3017;DHT22;1518;52.408;13.060;2023-01-23T11:27:38;20.40;65.10
3017;DHT22;1518;52.408;13.060;2023-01-23T11:30:33;20.50;65.10
3017;DHT22;1518;52.408;13.060;2023-01-23T11:33:33;20.50;65.00
3017;DHT22;1518;52.408;13.060;2023-01-23T11:36:41;20.50;64.90
3017;DHT22;1518;52.408;13.060;2023-01-23T11:39:46;20.50;64.80
3017;DHT22;1518;52.408;13.060;2023-01-23T11:42:38;20.50;65.60
3017;DHT22;1518;52.408;13.060;2023-01-23T11:45:37;20.60;64.70
3017;DHT22;1518;52.408;13.060;2023-01-23T11:48:55;20.60;64.70
3017;DHT22;1518;52.408;13.060;2023-01-23T11:51:55;20.60;65.30
3017;DHT22;1518;52.408;13.060;2023-01-23T11:55:01;20.60;64.50
3017;DHT22;1518;52.408;13.060;2023-01-23T11:58:00;20.60;64.50
3017;DHT22;1518;52.408;13.060;2023-01-23T12:01:00;20.60;64.40
3017;DHT22;1518;52.408;13.060;2023-01-23T12:04:06;20.60;64.40
3017;DHT22;1518;52.408;13.060;2023-01-23T12:07:06;20.60;64.30
3017;DHT22;1518;52.408;13.060;2023-01-23T12:10:03;20.60;64.30
3017;DHT22;1518;52.408;13.060;2023-01-23T12:13:09;20.60;64.30
3017;DHT22;1518;52.408;13.060;2023-01-23T12:16:07;21.10;69.70
3017;DHT22;1518;52.408;13.060;2023-01-23T12:19:12;20.50;64.50
3017;DHT22;1518;52.408;13.060;2023-01-23T12:22:08;20.60;64.70
3017;DHT22;1518;52.408;13.060;2023-01-23T12:25:08;20.50;64.50
3017;DHT22;1518;52.408;13.060;2023-01-23T12:28:07;20.60;64.70
3017;DHT22;1518;52.408;13.060;2023-01-23T12:31:32;20.60;64.70
3017;DHT22;1518;52.408;13.060;2023-01-23T12:34:33;20.60;64.80
3017;DHT22;1518;52.408;13.060;2023-01-23T12:37:45;20.60;64.90
3017;DHT22;1518;52.408;13.060;2023-01-23T12:40:40;20.60;64.90
3017;DHT22;1518;52.408;13.060;2023-01-23T12:43:35;20.70;64.90
3017;DHT22;1518;52.408;13.060;2023-01-23T12:46:31;20.80;64.90
3017;DHT22;1518;52.408;13.060;2023-01-23T12:49:26;20.80;65.50
3017;DHT22;1518;52.408;13.060;2023-01-23T12:52:20;21.10;69.30
3017;DHT22;1518;52.408;13.060;2023-01-23T12:55:17;20.80;64.80
3017;DHT22;1518;52.408;13.060;2023-01-23T12:58:08;20.80;64.70
3017;DHT22;1518;52.408;13.060;2023-01-23T13:01:09;20.90;64.70
3017;DHT22;1518;52.408;13.060;2023-01-23T13:04:14;20.80;64.70
3017;DHT22;1518;52.408;13.060;2023-01-23T13:07:18;20.80;64.60
3017;DHT22;1518;52.408;13.060;2023-01-23T13:10:23;20.90;64.60
3017;DHT22;1518;52.408;13.060;2023-01-23T13:13:33;20.80;64.40
3017;DHT22;1518;52.408;13.060;2023-01-23T13:16:25;20.90;64.50
3017;DHT22;1518;52.408;13.060;2023-01-23T13:19:23;20.90;64.50
3017;DHT22;1518;52.408;13.060;2023-01-23T13:22:30;20.90;64.50
3017;DHT22;1518;52.408;13.060;2023-01-23T13:25:19;20.90;64.30
3017;DHT22;1518;52.408;13.060;2023-01-23T13:28:28;20.90;64.50
3017;DHT22;1518;52.408;13.060;2023-01-23T13:31:40;20.90;64.50
3017;DHT22;1518;52.408;13.060;2023-01-23T13:34:38;20.90;64.60
3017;DHT22;1518;52.408;13.060;2023-01-23T13:37:46;20.90;64.60
3017;DHT22;1518;52.408;13.060;2023-01-23T13:40:37;20.80;64.50
3017;DHT22;1518;52.408;13.060;2023-01-23T13:43:51;20.90;64.40
3017;DHT22;1518;52.408;13.060;2023-01-23T13:46:55;20.90;65.10
3017;DHT22;1518;52.408;13.060;2023-01-23T13:50:04;20.90;64.40
3017;DHT22;1518;52.408;13.060;2023-01-23T13:53:14;20.90;64.40
3017;DHT22;1518;52.408;13.060;2023-01-23T13:56:50;20.90;64.40
3017;DHT22;1518;52.408;13.060;2023-01-23T13:59:53;21.00;64.40
3017;DHT22;1518;52.408;13.060;2023-01-23T14:03:09;21.00;64.40
3017;DHT22;1518;52.408;13.060;2023-01-23T14:06:32;21.00;64.20
3017;DHT22;1518;52.408;13.060;2023-01-23T14:09:35;21.00;64.10
3017;DHT22;1518;52.408;13.060;2023-01-23T14:13:02;21.00;63.90
3017;DHT22;1518;52.408;13.060;2023-01-23T14:16:12;21.00;63.80
3017;DHT22;1518;52.408;13.060;2023-01-23T14:22:04;20.70;63.30
3017;DHT22;1518;52.408;13.060;2023-01-23T14:24:53;20.90;63.80
3017;DHT22;1518;52.408;13.060;2023-01-23T14:27:41;20.90;63.80
3017;DHT22;1518;52.408;13.060;2023-01-23T14:30:39;20.80;63.80
3017;DHT22;1518;52.408;13.060;2023-01-23T14:33:28;20.90;63.80
3017;DHT22;1518;52.408;13.060;2023-01-23T14:36:17;20.90;64.00
3017;DHT22;1518;52.408;13.060;2023-01-23T14:39:14;20.90;63.90
3017;DHT22;1518;52.408;13.060;2023-01-23T14:42:05;21.20;67.70
3017;DHT22;1518;52.408;13.060;2023-01-23T14:45:09;21.00;63.70
3017;DHT22;1518;52.408;13.060;2023-01-23T14:47:58;21.10;63.60
3017;DHT22;1518;52.408;13.060;2023-01-23T14:51:04;21.10;63.60
3017;DHT22;1518;52.408;13.060;2023-01-23T14:53:55;21.10;63.40
3017;DHT22;1518;52.408;13.060;2023-01-23T14:56:45;21.10;63.40
3017;DHT22;1518;52.408;13.060;2023-01-23T14:59:36;21.10;63.50
3017;DHT22;1518;52.408;13.060;2023-01-23T15:02:30;21.00;63.30
3017;DHT22;1518;52.408;13.060;2023-01-23T15:05:21;21.10;63.30
3017;DHT22;1518;52.408;13.060;2023-01-23T15:08:18;21.10;63.30
3017;DHT22;1518;52.408;13.060;2023-01-23T15:11:07;21.10;63.20
3017;DHT22;1518;52.408;13.060;2023-01-23T15:13:59;21.10;63.10
3017;DHT22;1518;52.408;13.060;2023-01-23T15:16:48;21.10;63.10
3017;DHT22;1518;52.408;13.060;2023-01-23T15:19:38;21.20;63.30
3017;DHT22;1518;52.408;13.060;2023-01-23T15:22:28;21.10;63.10
3017;DHT22;1518;52.408;13.060;2023-01-23T15:25:25;21.20;63.20
3017;DHT22;1518;52.408;13.060;2023-01-23T15:28:30;21.20;63.10
3017;DHT22;1518;52.408;13.060;2023-01-23T15:31:23;21.20;63.10
3017;DHT22;1518;52.408;13.060;2023-01-23T15:34:25;21.20;63.00
3017;DHT22;1518;52.408;13.060;2023-01-23T15:37:20;21.20;63.00
3017;DHT22;1518;52.408;13.060;2023-01-23T15:40:15;21.20;62.90
3017;DHT22;1518;52.408;13.060;2023-01-23T15:43:05;21.10;62.80
3017;DHT22;1518;52.408;13.060;2023-01-23T15:45:57;21.20;62.90
3017;DHT22;1518;52.408;13.060;2023-01-23T15:48:47;21.20;62.80
3017;DHT22;1518;52.408;13.060;2023-01-23T15:51:36;21.20;62.80
3017;DHT22;1518;52.408;13.060;2023-01-23T15:54:27;21.10;62.70
3017;DHT22;1518;52.408;13.060;2023-01-23T15:57:18;21.10;62.70
3017;DHT22;1518;52.408;13.060;2023-01-23T16:00:13;21.10;62.80
3017;DHT22;1518;52.408;13.060;2023-01-23T16:03:01;21.10;62.80
3017;DHT22;1518;52.408;13.060;2023-01-23T16:05:50;21.10;63.00
3017;DHT22;1518;52.408;13.060;2023-01-23T16:08:38;21.10;62.80
3017;DHT22;1518;52.408;13.060;2023-01-23T16:11:29;21.10;62.70
3017;DHT22;1518;52.408;13.060;2023-01-23T16:14:19;21.20;62.70
3017;DHT22;1518;52.408;13.060;2023-01-23T16:17:07;20.90;62.40
3017;DHT22;1518;52.408;13.060;2023-01-23T16:20:03;21.20;62.60
3017;DHT22;1518;52.408;13.060;2023-01-23T16:22:55;21.10;62.40
3017;DHT22;1518;52.408;13.060;2023-01-23T16:25:51;21.10;62.40
3017;DHT22;1518;52.408;13.060;2023-01-23T16:28:40;21.10;62.60
3017;DHT22;1518;52.408;13.060;2023-01-23T16:31:28;21.10;62.80
3017;DHT22;1518;52.408;13.060;2023-01-23T16:34:16;21.10;62.60
3017;DHT22;1518;52.408;13.060;2023-01-23T16:37:10;21.00;62.40
3017;DHT22;1518;52.408;13.060;2023-01-23T16:40:01;21.10;62.50
3017;DHT22;1518;52.408;13.060;2023-01-23T16:42:52;21.10;62.40
3017;DHT22;1518;52.408;13.060;2023-01-23T16:45:42;21.00;62.40
3017;DHT22;1518;52.408;13.060;2023-01-23T16:48:30;20.90;62.20
3017;DHT22;1518;52.408;13.060;2023-01-23T16:51:20;20.90;62.30
3017;DHT22;1518;52.408;13.060;2023-01-23T16:54:13;20.70;62.30
3017;DHT22;1518;52.408;13.060;2023-01-23T16:57:09;20.70;62.30
3017;DHT22;1518;52.408;13.060;2023-01-23T16:59:59;20.60;62.30
3017;DHT22;1518;52.408;13.060;2023-01-23T17:02:50;20.50;62.40
3017;DHT22;1518;52.408;13.060;2023-01-23T17:05:39;20.40;62.50
3017;DHT22;1518;52.408;13.060;2023-01-23T17:08:27;20.30;62.60
3017;DHT22;1518;52.408;13.060;2023-01-23T17:11:18;20.20;62.80
3017;DHT22;1518;52.408;13.060;2023-01-23T17:14:14;20.10;62.80
3017;DHT22;1518;52.408;13.060;2023-01-23T17:17:05;19.90;63.00
3017;DHT22;1518;52.408;13.060;2023-01-23T17:19:57;19.90;63.10
3017;DHT22;1518;52.408;13.060;2023-01-23T17:22:47;19.80;63.20
3017;DHT22;1518;52.408;13.060;2023-01-23T17:25:35;19.60;63.20
3017;DHT22;1518;52.408;13.060;2023-01-23T17:28:40;19.60;63.30
3017;DHT22;1518;52.408;13.060;2023-01-23T17:31:29;19.50;63.40
3017;DHT22;1518;52.408;13.060;2023-01-23T17:34:21;19.50;63.50
3017;DHT22;1518;52.408;13.060;2023-01-23T17:37:16;19.40;63.50
3017;DHT22;1518;52.408;13.060;2023-01-23T17:40:09;19.40;63.70
3017;DHT22;1518;52.408;13.060;2023-01-23T17:42:58;19.30;63.60
3017;DHT22;1518;52.408;13.060;2023-01-23T17:45:48;19.30;63.60
3017;DHT22;1518;52.408;13.060;2023-01-23T17:48:39;19.20;62.80
3017;DHT22;1518;52.408;13.060;2023-01-23T17:51:27;19.10;62.10
3017;DHT22;1518;52.408;13.060;2023-01-23T17:54:17;19.00;62.20
3017;DHT22;1518;52.408;13.060;2023-01-23T17:57:06;19.00;62.90
3017;DHT22;1518;52.408;13.060;2023-01-23T17:59:54;18.80;62.90
3017;DHT22;1518;52.408;13.060;2023-01-23T18:02:42;18.60;69.00
3017;DHT22;1518;52.408;13.060;2023-01-23T18:05:32;18.60;63.20
3017;DHT22;1518;52.408;13.060;2023-01-23T18:08:20;18.50;63.40
3017;DHT22;1518;52.408;13.060;2023-01-23T18:11:18;18.40;63.70
3017;DHT22;1518;52.408;13.060;2023-01-23T18:14:19;18.30;63.10
3017;DHT22;1518;52.408;13.060;2023-01-23T18:17:16;18.30;62.90
3017;DHT22;1518;52.408;13.060;2023-01-23T18:20:16;18.20;62.90
3017;DHT22;1518;52.408;13.060;2023-01-23T18:23:10;18.10;63.10
3017;DHT22;1518;52.408;13.060;2023-01-23T18:26:07;18.00;62.90
3017;DHT22;1518;52.408;13.060;2023-01-23T18:29:05;17.90;63.10